Date,TemperatureHighF,TemperatureAvgF,TemperatureLowF,DewpointHighF,DewpointAvgF,DewpointLowF,HumidityHigh,HumidityAvg,HumidityLow,PressureMaxIn,PressureMinIn,WindSpeedMaxMPH,WindSpeedAvgMPH,GustSpeedMaxMPH,PrecipitationSumIn
2013-1-1,23.5,10.8,3.0,9.8,2.9,-2.1,80,71,53,30.26,30.13,8,1,8,0.00
2013-1-2,32.2,20.7,6.6,18.1,11.8,-0.8,77,69,52,30.18,30.05,11,1,11,0.00
2013-1-3,27.1,22.8,13.8,19.6,16.6,7.9,81,77,73,30.24,30.05,11,3,11,0.00
2013-1-4,34.0,21.3,10.9,21.1,13.5,4.9,81,72,58,30.21,30.06,15,3,15,0.00
2013-1-5,34.9,27.3,13.3,31.1,22.0,8.5,88,80,71,30.23,29.88,15,3,15,0.00
2013-1-6,36.1,27.2,17.2,30.5,21.0,12.1,86,77,64,30.31,29.87,13,3,13,0.00
2013-1-7,39.9,27.7,12.7,25.9,19.8,8.2,84,72,56,30.30,30.04,21,4,21,0.00
2013-1-8,43.3,33.8,21.9,31.6,26.4,17.2,84,74,62,30.14,29.96,17,3,17,0.00
2013-1-9,43.0,35.6,25.2,30.9,25.8,18.6,79,68,53,30.48,29.93,19,4,19,0.00
2013-1-10,42.4,31.1,19.8,33.4,25.4,14.8,88,80,68,30.50,29.88,11,1,11,0.00
2013-1-11,51.6,43.1,36.3,46.1,39.9,33.0,90,88,81,29.88,29.62,19,3,19,0.00
2013-1-12,51.6,38.8,26.2,46.0,31.4,19.5,82,75,68,29.99,29.63,20,5,20,0.00
2013-1-13,26.2,20.3,13.6,21.0,13.4,5.0,82,74,68,30.18,29.87,13,2,13,0.00
2013-1-14,31.8,17.2,4.8,15.1,7.7,-10.7,77,67,47,30.44,30.18,9,0,9,0.00
2013-1-15,34.3,20.1,9.7,19.2,11.0,4.4,82,68,49,30.41,30.08,12,1,12,0.00
2013-1-16,33.8,26.3,14.7,27.7,18.1,8.2,79,71,58,30.08,29.77,24,3,24,0.00
2013-1-17,31.8,21.4,11.3,21.9,9.6,4.2,75,61,44,30.38,30.04,11,1,11,0.00
2013-1-18,42.6,29.3,10.8,30.2,20.9,4.2,78,71,61,30.40,29.83,28,6,28,0.00
2013-1-19,46.0,38.1,19.6,35.3,28.1,5.9,76,67,42,29.90,29.66,20,6,20,0.00
2013-1-20,21.2,12.8,8.1,6.0,0.4,-2.1,64,58,46,30.28,29.90,18,4,18,0.00
2013-1-21,10.9,5.7,-1.1,0.8,-5.3,-10.8,69,60,51,30.26,30.11,14,2,14,0.00
2013-1-22,12.7,2.0,-6.3,-2.1,-8.7,-15.2,66,61,50,30.37,30.25,9,1,9,0.00
2013-1-23,17.4,11.4,2.1,10.7,2.8,-7.4,77,68,61,30.37,30.09,11,2,11,0.00
2013-1-24,21.0,11.3,0.1,9.8,1.1,-7.7,70,63,53,30.64,30.35,11,0,11,0.00
2013-1-25,25.5,19.9,15.8,16.5,11.2,5.9,77,69,58,30.36,29.95,16,1,16,0.00
2013-1-26,32.7,19.0,7.5,14.6,8.4,1.2,77,64,45,30.38,30.16,6,0,6,0.00
2013-1-27,33.3,27.4,22.8,29.8,20.7,12.0,87,76,63,30.34,29.87,12,1,12,0.00
2013-1-28,46.9,37.5,32.5,37.7,33.2,27.5,89,84,69,29.95,29.77,9,1,9,0.00
2013-1-29,58.8,45.6,35.4,55.4,42.4,31.9,90,89,86,29.82,29.47,13,2,13,0.00
2013-1-30,34.7,27.9,16.0,31.7,24.2,10.9,89,86,80,29.59,29.27,15,2,15,0.00
2013-1-31,16.3,11.8,2.8,11.5,5.0,-4.2,81,74,67,30.12,29.59,15,5,15,0.00
2013-2-1,8.1,2.9,-4.2,2.6,-4.7,-10.2,78,70,60,30.31,30.11,18,2,18,0.00
2013-2-2,21.6,10.3,1.0,8.6,3.0,-6.3,81,72,56,30.13,30.00,9,0,9,0.00
2013-2-3,27.7,13.8,1.2,13.6,6.1,-5.5,81,72,53,30.03,29.92,11,1,11,0.00
2013-2-4,28.6,15.8,5.5,18.7,9.2,-1.0,82,75,63,30.01,29.91,8,0,8,0.00
2013-2-5,27.1,17.9,0.1,22.1,12.4,-5.6,83,79,74,30.08,29.77,14,2,14,0.00
2013-2-6,32.7,18.1,0.3,27.2,11.9,-5.5,80,76,73,30.18,30.07,9,1,9,0.00
2013-2-7,34.5,32.8,31.3,30.2,28.5,26.4,88,84,80,30.10,29.89,8,0,8,0.00
2013-2-8,26.2,20.0,9.1,20.9,15.4,4.4,86,82,79,30.39,30.12,0,0,0,0.00
2013-2-9,30.0,18.0,4.5,24.6,13.5,0.1,86,82,79,30.39,30.06,7,0,7,0.00
2013-2-10,44.2,31.6,15.3,40.9,28.0,10.8,90,87,76,30.07,29.43,18,3,18,0.00
2013-2-11,41.0,31.5,26.4,33.6,24.7,19.2,81,76,72,30.00,29.44,28,6,28,0.00
2013-2-12,33.1,23.8,16.3,21.3,16.7,10.8,83,74,60,30.09,29.88,12,2,12,0.00
2013-2-13,42.6,28.7,13.3,31.1,21.9,8.8,86,76,62,29.88,29.70,10,1,10,0.00
2013-2-14,36.3,33.1,27.0,31.6,26.8,19.4,84,78,69,29.98,29.59,15,2,15,0.00
2013-2-15,34.9,23.0,13.6,22.6,12.1,3.7,80,64,44,30.19,29.98,10,1,10,0.00
2013-2-16,24.6,12.1,2.8,8.1,1.6,-5.0,73,63,48,30.20,30.09,9,0,9,0.00
2013-2-17,32.0,15.2,-1.3,12.9,3.8,-7.9,76,61,43,30.23,29.98,11,0,11,0.00
2013-2-18,47.1,35.5,24.4,38.1,27.2,12.9,87,72,61,29.98,29.44,13,2,13,0.00
2013-2-19,30.4,14.9,7.7,26.7,8.5,0.0,86,76,68,30.18,29.52,0,0,0,0.00
2013-2-20,30.7,13.5,5.5,15.6,4.5,-1.6,74,67,52,30.39,30.18,12,0,12,0.00
2013-2-21,26.4,19.9,7.5,21.6,14.3,0.9,82,79,74,30.43,30.05,22,2,22,0.00
2013-2-22,31.8,27.6,24.4,27.1,23.5,20.6,87,84,80,30.05,29.77,15,2,15,0.00
2013-2-23,31.8,25.2,19.6,22.5,18.4,13.1,84,76,63,29.94,29.85,18,3,18,0.00
2013-2-24,43.2,26.2,10.8,27.4,17.1,5.4,84,69,51,30.14,29.94,11,1,11,0.00
2013-2-25,48.7,28.0,12.0,30.8,18.8,6.4,82,69,48,30.19,30.03,7,0,7,0.00
2013-2-26,35.4,32.2,28.2,28.7,26.6,22.5,88,80,68,30.03,29.59,22,4,22,0.00
2013-2-27,36.9,31.9,29.1,31.9,28.2,25.6,88,86,81,29.74,29.57,0,0,0,0.00
2013-2-28,35.8,31.1,25.2,29.0,25.6,18.9,86,80,73,30.11,29.74,11,2,11,0.00
2013-3-1,25.9,24.3,22.5,20.2,18.2,15.7,80,77,74,30.23,30.09,11,3,11,0.00
2013-3-2,36.7,21.1,5.5,20.3,11.7,-1.8,76,67,50,30.24,30.13,9,1,9,0.00
2013-3-3,42.4,16.9,-0.6,20.9,5.3,-7.0,79,62,39,30.18,30.04,7,0,7,0.00
2013-3-4,35.2,20.9,4.8,23.7,12.4,-2.6,76,70,60,30.15,30.04,16,2,16,0.00
2013-3-5,31.1,29.3,25.9,26.7,24.3,21.6,86,82,75,30.03,29.87,14,2,17,0.00
2013-3-6,36.3,29.7,25.7,27.1,23.6,20.9,84,78,68,30.31,30.09,9,3,11,0.00
2013-3-7,43.2,29.7,19.6,25.7,19.1,11.0,77,65,49,30.44,30.32,6,0,6,0.00
2013-3-8,48.0,25.1,9.1,30.1,16.5,2.8,82,70,49,30.49,30.32,12,1,12,0.00
2013-3-9,42.3,34.5,25.2,31.6,27.2,19.6,83,75,64,30.29,29.85,12,1,15,0.00
2013-3-10,43.7,38.7,34.9,40.4,35.2,30.5,89,87,84,29.82,29.62,19,0,19,0.00
2013-3-11,39.0,34.2,31.1,36.3,31.3,27.4,90,89,86,29.73,29.54,10,1,11,0.00
2013-3-12,33.6,30.0,26.2,26.6,23.5,20.4,86,77,61,29.97,29.83,14,3,16,0.00
2013-3-13,37.6,27.8,18.7,16.9,13.2,8.5,78,55,42,30.31,30.16,12,2,12,0.00
2013-3-14,39.6,27.0,15.1,26.8,17.6,7.2,82,68,52,30.32,30.06,11,0,11,0.00
2013-3-15,39.2,32.1,27.1,32.8,27.4,22.7,86,83,77,30.07,29.80,10,0,10,0.00
2013-3-16,38.1,29.7,26.4,26.6,22.8,18.0,85,76,58,30.13,29.79,8,0,8,0.00
2013-3-17,37.0,27.1,19.6,22.2,17.3,10.6,78,67,53,30.24,30.02,13,1,13,0.00
2013-3-18,35.4,28.9,18.7,30.4,23.3,11.2,85,79,71,30.02,29.59,11,1,11,0.00
2013-3-19,33.3,21.3,12.9,14.9,10.0,5.6,74,62,46,30.04,29.73,21,4,21,0.00
2013-3-20,22.8,16.3,10.2,8.2,4.2,0.0,63,59,50,30.09,30.00,16,2,16,0.00
2013-3-21,35.8,19.9,9.1,17.1,7.8,0.3,69,60,45,30.05,29.97,10,1,10,0.00
2013-3-22,43.0,24.1,10.4,22.4,11.6,3.5,77,60,42,30.08,29.97,6,0,6,0.00
2013-3-23,44.4,29.1,16.3,25.0,18.7,9.8,78,66,44,30.15,30.04,11,0,11,0.00
2013-3-24,36.0,32.0,29.5,27.1,24.1,20.9,77,73,69,30.06,29.75,12,2,12,0.00
2013-3-25,35.8,31.2,27.7,26.4,23.4,20.4,79,73,64,30.09,29.78,9,2,9,0.00
2013-3-26,46.2,35.3,30.0,30.4,25.1,23.0,76,67,53,30.24,30.08,9,1,9,0.00
2013-3-27,42.4,35.1,24.6,26.9,22.1,15.6,70,59,47,30.31,30.24,7,0,7,0.00
2013-3-28,51.4,34.3,22.3,28.3,20.6,15.3,79,59,38,30.35,30.24,7,0,7,0.00
2013-3-29,54.9,37.0,22.6,28.7,21.6,15.6,79,56,34,30.32,30.21,7,0,7,0.00
2013-3-30,56.8,41.1,24.4,39.2,29.5,16.9,81,64,49,30.25,29.81,19,2,19,0.00
2013-3-31,52.5,41.8,31.8,40.4,33.4,21.4,85,72,54,29.90,29.69,19,3,19,0.00
2013-4-1,39.2,31.3,25.2,21.4,16.9,13.1,71,56,41,30.18,29.89,15,2,15,0.00
2013-4-2,43.3,31.5,21.9,19.3,15.3,11.8,69,52,36,30.31,30.18,13,1,13,0.00
2013-4-3,48.4,33.3,20.3,20.8,16.4,11.4,73,52,31,30.45,30.29,11,1,11,0.00
2013-4-4,58.6,41.1,23.2,34.3,25.1,13.6,72,54,39,30.30,29.93,19,2,19,0.00
2013-4-5,49.8,38.2,27.3,30.1,25.2,19.2,77,60,46,30.24,30.02,11,0,11,0.00
2013-4-6,62.8,47.5,33.8,47.1,34.4,22.3,81,61,45,30.16,29.55,23,4,23,0.00
2013-4-7,59.2,45.3,35.2,46.9,35.5,28.5,84,69,48,29.98,29.56,13,3,13,0.00
2013-4-8,56.3,42.8,34.7,47.0,37.2,28.3,88,81,70,30.00,29.57,11,2,11,0.00
2013-4-9,40.3,38.4,37.2,37.3,35.3,33.9,89,88,84,30.03,29.88,16,2,16,0.00
2013-4-10,38.8,36.5,34.0,35.6,33.4,30.7,89,89,88,30.10,29.84,18,3,18,0.00
2013-4-11,38.1,37.2,34.9,35.1,34.3,31.6,90,89,88,29.92,29.57,20,6,24,0.00
2013-4-12,42.1,37.4,34.9,37.7,33.5,28.5,90,86,77,29.80,29.52,12,2,12,0.00
2013-4-13,39.4,35.5,30.0,28.8,27.2,22.9,81,72,62,30.00,29.80,12,2,12,0.00
2013-4-14,52.3,38.9,29.8,46.0,33.3,23.6,87,80,67,30.02,29.60,20,2,20,0.00
2013-4-15,62.4,52.0,40.6,50.7,44.9,36.7,89,78,51,29.97,29.61,24,3,24,0.00
2013-4-16,59.7,44.1,32.5,40.4,34.7,29.1,88,71,47,30.29,29.95,12,1,12,0.00
2013-4-17,42.4,40.5,39.0,39.1,34.9,30.7,89,81,70,30.31,29.85,20,3,20,0.00
2013-4-18,57.6,47.3,39.4,54.7,43.9,33.6,90,88,79,29.85,29.37,28,2,28,0.00
2013-4-19,40.3,36.4,31.3,33.4,27.7,23.6,80,71,59,29.90,29.41,20,5,20,0.00
2013-4-20,47.8,35.7,25.9,25.1,22.0,18.4,74,59,38,30.42,29.90,11,2,11,0.00
2013-4-21,51.6,41.0,30.7,31.5,26.8,23.5,76,58,44,30.52,30.28,17,4,17,0.00
2013-4-22,69.6,52.6,37.8,41.6,35.1,28.1,72,53,35,30.29,30.02,17,2,17,0.00
2013-4-23,54.3,44.3,38.1,47.3,38.2,32.4,86,79,60,30.02,29.89,13,1,13,0.00
2013-4-24,54.3,43.3,33.3,32.7,29.1,25.9,81,60,35,30.05,29.94,13,1,13,0.00
2013-4-25,53.1,44.5,34.5,34.0,30.8,24.3,77,60,42,30.30,29.99,19,3,19,0.00
2013-4-26,67.8,52.1,32.2,46.6,37.3,23.6,77,58,45,30.31,30.14,28,4,28,0.00
2013-4-27,70.3,56.8,43.9,47.9,43.2,37.4,82,62,41,30.25,30.01,15,2,15,0.00
2013-4-28,73.2,57.7,49.3,51.1,45.2,38.5,78,64,45,30.01,29.79,41,0,41,0.00
2013-4-29,70.9,59.2,44.8,55.0,49.1,39.2,86,70,52,29.87,29.73,19,2,19,0.00
2013-4-30,86.5,72.3,61.5,60.4,55.9,53.3,80,59,33,29.89,29.71,57,6,57,0.00
2013-5-1,87.1,72.6,51.1,57.8,53.9,40.1,67,53,31,30.18,29.88,51,6,51,0.00
2013-5-2,59.7,48.8,40.3,49.3,40.0,34.1,85,72,55,30.24,30.16,16,1,16,0.00
2013-5-3,48.0,43.2,38.5,44.3,39.4,34.6,88,86,85,30.18,29.98,9,0,9,0.00
2013-5-4,73.8,57.8,45.3,54.3,46.8,41.4,87,69,46,30.04,29.97,45,1,45,0.00
2013-5-5,76.1,58.7,43.3,51.0,44.0,37.2,83,60,39,30.06,29.98,47,2,47,0.00
2013-5-6,79.2,61.0,44.2,48.7,41.5,35.8,79,52,29,30.07,29.96,45,2,45,0.00
2013-5-7,81.7,65.9,46.8,49.8,44.1,36.1,71,48,31,30.04,29.97,49,7,49,0.00
2013-5-8,82.9,63.8,44.2,52.4,45.2,37.1,81,54,30,30.04,29.94,51,5,51,0.00
2013-5-9,69.4,56.5,44.2,57.7,48.4,40.3,86,75,58,29.95,29.87,12,0,12,0.00
2013-5-10,49.8,45.7,41.0,44.0,41.3,36.2,88,85,80,29.98,29.83,8,0,8,0.00
2013-5-11,56.8,46.7,37.8,47.2,36.9,29.2,88,71,44,30.02,29.78,15,2,15,0.00
2013-5-12,57.9,45.6,36.7,34.1,29.9,24.5,69,55,38,30.10,30.01,14,1,14,0.00
2013-5-13,66.2,47.8,32.2,37.2,32.0,25.8,82,57,31,30.18,29.96,18,1,18,0.00
2013-5-14,91.9,68.5,47.3,60.6,50.0,33.7,71,53,34,29.96,29.56,50,5,50,0.00
2013-5-15,85.5,71.9,55.4,60.0,50.4,41.2,68,48,30,29.84,29.56,46,6,46,0.00
2013-5-16,83.1,65.0,50.5,55.4,45.8,37.1,77,52,34,29.99,29.82,49,6,49,0.00
2013-5-17,65.7,57.1,50.7,49.6,43.9,36.4,80,62,50,30.10,29.98,14,1,14,0.00
2013-5-18,81.1,65.3,51.6,62.5,53.4,43.3,77,66,52,30.08,29.92,46,3,46,0.00
2013-5-19,86.2,70.2,54.3,67.0,59.1,48.6,85,69,51,29.95,29.67,48,6,48,0.00
2013-5-20,85.8,74.4,64.2,63.0,60.1,56.3,85,63,43,29.74,29.65,39,5,39,0.06
2013-5-21,80.1,69.3,60.3,64.0,58.6,52.9,85,70,49,29.69,29.61,31,4,31,0.11
2013-5-22,67.8,60.8,54.3,63.1,56.2,50.5,87,85,77,29.75,29.61,6,0,6,0.67
2013-5-23,59.4,50.9,39.6,50.5,44.7,33.6,88,80,66,30.31,29.75,11,1,11,0.10
2013-5-24,67.6,48.4,32.7,45.2,36.4,28.4,86,65,40,30.44,30.29,11,0,11,0.00
2013-5-25,61.0,51.9,42.1,41.6,37.7,32.1,79,60,44,30.39,30.26,10,0,10,0.00
2013-5-26,68.2,52.9,38.1,47.6,40.9,31.4,82,65,43,30.30,30.15,16,1,16,0.02
2013-5-27,53.8,51.9,49.8,50.0,46.5,41.5,88,82,66,30.16,29.89,12,1,12,0.06
2013-5-28,72.7,61.4,50.7,66.1,57.2,47.2,90,86,78,29.89,29.67,15,0,15,0.84
2013-5-29,84.0,71.3,63.0,68.0,63.1,59.4,89,76,58,29.89,29.74,41,4,41,0.00
2013-5-30,74.1,71.6,66.0,65.6,63.3,60.7,83,75,73,29.87,29.82,29,2,29,0.00
2013-5-31,76.1,70.5,62.8,66.7,62.1,58.9,87,75,62,29.80,29.68,42,5,42,0.02
2013-6-1,76.6,69.8,63.1,64.1,62.0,56.8,86,77,63,29.69,29.60,45,4,45,0.00
2013-6-2,62.8,56.3,48.4,56.8,48.5,43.4,84,75,63,30.02,29.66,6,0,6,0.00
2013-6-3,73.9,57.6,43.3,51.6,44.2,39.4,87,64,41,30.09,29.98,46,1,46,0.00
2013-6-4,71.8,59.0,48.0,49.4,44.9,40.4,81,61,44,30.16,30.06,42,0,42,0.00
2013-6-5,65.3,57.5,51.6,52.0,47.9,43.0,83,71,59,30.13,29.96,10,0,10,0.00
2013-6-6,60.1,55.7,51.8,52.8,49.6,46.8,84,80,73,29.97,29.90,10,0,10,0.00
2013-6-7,75.0,60.6,49.8,53.3,47.0,42.1,86,64,38,29.97,29.89,46,3,46,0.00
2013-6-8,77.9,60.8,45.7,54.2,47.6,40.5,85,64,41,30.02,29.91,49,6,49,0.00
2013-6-9,78.4,66.8,54.3,60.7,54.7,47.4,79,66,49,30.01,29.80,45,4,45,0.00
2013-6-10,80.4,68.8,59.9,66.7,60.6,54.4,85,76,58,29.84,29.74,51,7,51,0.00
2013-6-11,86.4,72.3,57.4,66.2,61.3,52.9,87,70,50,29.90,29.77,45,8,45,0.00
2013-6-12,77.5,69.3,62.6,65.9,62.3,58.2,87,79,65,29.87,29.62,37,2,37,0.00
2013-6-13,82.8,67.1,56.7,63.3,57.0,48.9,87,71,51,30.05,29.63,42,5,42,0.00
2013-6-14,79.9,64.1,50.5,58.9,52.1,45.4,85,66,48,30.13,29.99,40,4,40,0.00
2013-6-15,80.4,64.4,55.0,68.5,56.8,47.0,86,77,67,30.08,29.81,40,2,40,0.65
2013-6-16,87.3,76.5,62.1,67.5,60.7,54.5,87,60,41,29.89,29.84,41,2,41,0.00
2013-6-17,90.5,70.9,58.1,65.1,57.6,50.5,85,65,40,29.96,29.82,43,6,43,0.00
2013-6-18,74.8,62.3,52.2,57.5,50.5,41.2,81,66,47,30.08,29.94,34,2,34,0.00
2013-6-19,79.5,62.9,46.6,53.5,47.6,41.3,83,60,39,30.15,30.06,40,4,40,0.00
2013-6-20,88.9,70.1,52.5,63.4,55.4,45.9,81,62,38,30.14,30.03,45,7,45,0.00
2013-6-21,75.2,69.4,61.7,67.2,62.2,54.3,86,78,64,30.10,29.87,23,1,23,1.18
2013-6-22,79.3,71.4,65.8,72.1,66.0,61.7,88,83,77,30.11,29.92,31,1,31,1.10
2013-6-23,87.6,75.3,64.4,73.7,66.7,60.2,87,75,61,30.00,29.86,40,6,40,0.00
2013-6-24,80.4,73.0,68.5,69.3,65.9,63.7,85,79,66,30.02,29.80,38,6,38,0.02
2013-6-25,81.1,71.5,65.3,73.4,66.5,61.3,88,84,74,29.94,29.78,43,8,43,1.34
2013-6-26,78.6,71.2,67.3,69.5,66.1,63.8,90,84,73,29.83,29.70,43,8,43,0.41
2013-6-27,88.0,73.4,64.8,73.9,67.3,61.5,91,82,55,29.77,29.67,48,7,48,0.65
2013-6-28,79.0,70.1,63.5,65.7,62.6,59.1,90,78,62,29.71,29.59,43,6,43,0.02
2013-6-29,76.8,66.4,62.4,63.4,59.6,55.0,89,79,57,29.80,29.60,49,2,49,0.02
2013-6-30,81.5,68.0,59.5,61.9,54.4,48.1,78,63,41,30.01,29.80,46,6,46,0.00
2013-7-1,75.9,63.1,57.0,57.0,50.4,46.1,73,64,48,30.08,30.00,33,1,33,0.00
2013-7-2,75.9,63.3,55.9,55.4,51.7,48.4,81,67,45,30.10,30.05,38,1,38,0.00
2013-7-3,68.5,64.4,59.5,62.2,57.9,52.2,86,80,73,30.06,30.00,5,0,5,0.00
2013-7-4,84.2,71.6,58.5,64.6,59.9,54.3,88,69,43,30.08,29.99,39,7,39,0.00
2013-7-5,87.1,74.0,61.5,67.1,61.9,56.6,86,67,48,30.05,29.98,39,6,39,0.00
2013-7-6,87.6,74.8,60.4,66.8,62.2,55.6,88,67,44,30.04,29.94,38,5,38,0.00
2013-7-7,86.9,77.8,67.6,71.6,67.9,62.6,86,73,57,29.97,29.90,43,8,43,0.00
2013-7-8,87.1,77.0,70.5,76.2,70.2,66.4,88,80,68,29.97,29.89,37,5,37,1.00
2013-7-9,82.0,74.1,68.2,74.4,69.4,64.8,90,86,74,29.98,29.81,43,4,43,0.53
2013-7-10,80.8,74.0,61.2,72.0,64.0,55.3,87,72,52,30.00,29.81,38,9,38,0.00
2013-7-11,83.5,68.7,56.1,62.2,56.8,51.6,86,67,47,30.09,29.99,38,7,38,0.00
2013-7-12,86.5,69.0,54.0,61.4,55.2,48.9,85,64,43,30.15,30.05,43,6,43,0.00
2013-7-13,86.2,71.0,56.8,62.9,57.8,51.0,84,65,44,30.15,30.07,38,7,38,0.00
2013-7-14,89.4,75.4,62.4,70.5,64.1,56.5,83,69,51,30.21,30.13,39,8,39,0.00
2013-7-15,89.2,78.2,66.0,74.6,68.7,60.4,84,73,60,30.25,30.20,46,8,46,0.00
2013-7-16,91.0,81.0,70.3,75.5,71.4,64.9,84,73,59,30.27,30.21,45,11,45,0.00
2013-7-17,93.0,82.5,72.7,76.4,71.5,66.7,83,70,54,30.28,30.14,44,6,44,0.00
2013-7-18,93.6,82.5,71.2,75.7,70.5,64.6,83,68,53,30.16,29.90,47,7,47,0.00
2013-7-19,92.5,83.1,74.8,74.5,70.4,65.2,77,66,55,29.91,29.73,47,9,47,0.00
2013-7-20,85.8,72.7,64.6,66.1,61.8,56.5,80,69,51,29.95,29.80,37,6,37,0.00
2013-7-21,83.1,68.6,61.0,69.2,60.2,54.8,84,75,61,29.96,29.82,39,5,39,2.57
2013-7-22,86.2,73.9,61.7,70.0,64.3,56.6,85,73,55,29.87,29.67,41,7,41,0.00
2013-7-23,78.6,68.6,58.3,62.1,57.7,50.9,81,69,53,29.98,29.67,36,4,36,0.04
2013-7-24,75.9,63.0,51.8,56.3,52.2,46.5,82,69,49,30.05,29.98,40,3,40,0.00
2013-7-25,78.6,66.5,52.3,61.1,55.3,46.6,82,68,54,30.08,29.94,46,3,46,0.00
2013-7-26,70.5,65.8,58.8,62.7,58.7,53.3,82,78,67,29.95,29.82,9,1,9,0.37
2013-7-27,61.0,57.3,53.2,53.3,49.3,46.4,82,75,65,29.91,29.84,9,1,9,0.02
2013-7-28,67.5,58.1,50.7,54.6,49.5,45.1,81,74,62,29.98,29.82,11,0,11,0.00
2013-7-29,76.8,63.6,53.8,60.4,53.9,47.8,80,71,54,30.16,29.98,42,4,42,0.00
2013-7-30,74.1,63.8,54.7,62.6,56.0,48.6,82,76,63,30.17,30.05,32,1,32,0.26
2013-7-31,75.6,65.3,60.1,65.9,58.9,54.3,82,80,71,30.05,29.91,44,1,44,1.23
2013-8-1,79.2,65.5,57.9,62.4,56.5,52.3,82,74,51,29.96,29.92,39,2,39,0.00
2013-8-2,78.3,70.6,64.4,66.0,62.3,56.6,79,75,65,29.92,29.82,39,6,39,0.02
2013-8-3,76.8,66.1,54.5,59.4,54.6,48.1,79,68,53,30.09,29.92,0,0,0,0.00
2013-8-4,76.3,63.9,53.2,60.1,53.8,46.8,79,70,54,30.19,30.09,41,1,41,0.00
2013-8-5,72.0,63.9,55.9,61.4,55.6,49.1,78,75,67,30.11,29.85,31,1,31,0.00
2013-8-6,82.8,71.3,61.7,69.4,62.4,54.8,79,74,64,29.85,29.77,47,7,47,0.00
2013-8-7,85.6,75.3,64.0,70.0,64.6,56.7,77,70,55,29.94,29.73,0,0,0,0.00
2013-8-8,79.3,67.4,59.7,59.5,55.1,51.7,78,66,47,30.03,29.93,0,0,0,0.00
2013-8-9,80.1,67.7,54.9,65.4,57.8,48.1,78,71,60,30.03,29.94,0,0,0,0.00
2013-8-10,77.7,66.4,55.2,62.0,55.9,48.4,78,70,54,30.12,30.03,0,0,0,0.00
2013-8-11,64.9,58.7,54.0,57.2,51.6,47.3,78,77,76,30.12,30.08,0,0,0,0.06
2013-8-12,81.7,70.2,62.4,69.9,61.9,55.1,79,75,66,29.95,29.85,42,2,42,0.23
2013-8-13,72.9,61.6,50.5,55.6,50.8,43.9,79,68,52,30.15,29.94,26,0,26,0.00
2013-8-14,74.1,60.4,48.2,55.8,49.7,41.9,79,69,52,30.21,30.11,43,1,43,0.00
2013-8-15,81.1,64.6,53.8,59.7,53.7,47.1,78,69,47,30.14,30.05,41,2,41,0.00
2013-8-16,81.5,65.7,53.8,62.6,54.7,46.9,79,69,49,30.18,30.10,45,4,45,0.00
2013-8-17,82.4,65.8,51.4,63.3,54.2,45.0,79,68,47,30.24,30.14,44,5,44,0.00
2013-8-18,81.5,65.9,51.3,62.0,54.7,45.0,79,68,51,30.21,30.07,42,3,42,0.00
2013-8-19,80.4,68.1,54.7,64.8,57.8,47.9,78,70,55,30.10,29.99,43,4,43,0.00
2013-8-20,84.6,72.5,60.1,67.8,61.4,53.2,78,69,55,30.06,29.99,42,6,42,0.00
2013-8-21,87.1,77.4,65.8,70.2,65.7,58.4,77,68,56,30.03,29.90,46,6,46,0.00
2013-8-22,77.2,70.4,64.9,67.1,62.5,57.7,78,76,70,30.11,29.97,28,0,28,0.51
2013-8-23,82.9,67.6,55.6,64.1,56.6,48.9,79,69,48,30.16,30.10,43,2,43,0.00
2013-8-24,85.1,68.8,53.8,65.9,58.0,47.1,79,69,51,30.24,30.13,41,2,41,0.00
2013-8-25,88.9,77.1,66.6,70.1,64.1,56.9,76,65,49,30.18,30.07,46,5,46,0.00
2013-8-26,88.5,78.8,71.2,74.2,68.1,62.1,74,70,62,30.10,29.94,47,7,47,0.00
2013-8-27,93.6,82.6,73.2,75.0,70.7,65.6,77,68,53,29.95,29.79,48,6,48,0.00
2013-8-28,86.9,76.5,66.7,72.6,67.1,59.7,78,73,62,30.03,29.81,44,4,44,0.00
2013-8-29,89.8,74.2,61.5,70.9,63.7,55.0,79,71,53,30.07,29.96,44,4,44,0.00
2013-8-30,95.0,73.7,65.1,76.6,64.8,58.1,78,74,51,29.96,29.74,41,2,41,0.71
2013-8-31,76.6,68.4,63.0,67.4,60.8,55.9,79,77,73,29.86,29.77,40,2,40,0.00
2013-9-1,84.0,69.3,60.4,72.3,61.3,53.6,79,76,67,29.82,29.69,43,3,43,0.10
2013-9-2,72.5,63.1,54.1,60.9,55.1,47.8,79,75,66,29.98,29.80,19,0,19,0.02
2013-9-3,75.6,60.1,49.3,57.6,51.0,43.2,80,73,52,30.08,29.98,48,1,48,0.00
2013-9-4,82.6,65.3,51.1,65.6,56.0,44.8,79,73,56,30.09,30.01,51,3,51,0.00
2013-9-5,75.4,64.3,51.6,57.7,53.2,45.0,78,68,52,30.25,30.09,43,2,43,0.00
2013-9-6,84.9,66.6,48.4,68.5,56.5,42.1,79,71,57,30.22,29.95,46,4,46,0.00
2013-9-7,81.5,72.8,65.5,70.2,63.7,58.1,77,73,63,29.96,29.87,42,4,42,0.00
2013-9-8,71.2,67.7,64.9,62.9,60.0,57.5,77,77,75,30.03,29.94,17,1,17,0.00
2013-9-9,91.0,77.6,66.7,76.3,67.9,59.3,78,72,61,29.96,29.77,43,8,43,0.00
2013-9-10,93.7,83.2,74.1,70.5,65.6,62.6,69,57,40,29.94,29.80,44,8,44,0.00
2013-9-11,81.3,73.9,65.3,68.5,63.7,57.9,77,71,60,30.07,29.92,39,4,39,0.00
2013-9-12,76.5,65.8,58.5,62.7,56.0,48.7,79,71,55,30.10,29.94,37,2,37,0.04
2013-9-13,68.9,56.0,47.1,48.7,44.1,40.5,78,65,46,30.19,30.10,0,0,0,0.00
2013-9-14,70.7,56.5,42.1,49.8,44.2,36.3,80,65,47,30.17,30.00,20,0,20,0.00
2013-9-15,58.8,55.4,52.9,51.3,48.1,45.4,79,76,61,30.20,29.98,5,0,5,0.41
2013-9-16,66.6,53.4,43.7,50.8,44.4,37.9,80,72,54,30.36,30.20,21,0,21,0.00
2013-9-17,68.2,55.3,41.5,53.9,46.7,35.8,80,73,59,30.33,30.10,17,0,17,0.00
2013-9-18,77.5,66.6,57.4,65.9,58.4,50.5,79,75,67,30.10,29.87,39,1,39,0.06
2013-9-19,81.5,72.0,66.4,71.6,64.1,59.3,78,76,71,29.91,29.71,37,2,37,1.29
2013-9-20,72.3,65.5,56.8,63.4,57.6,50.0,79,76,68,29.79,29.69,24,1,24,0.00
2013-9-21,58.8,54.0,47.8,50.2,46.4,41.6,80,76,67,29.93,29.78,5,0,5,0.00
2013-9-22,68.2,52.3,42.1,49.5,43.3,36.6,81,72,50,30.06,29.93,20,0,20,0.00
2013-9-23,68.5,52.9,43.0,53.3,44.6,37.4,81,74,57,30.12,30.02,18,0,18,0.00
2013-9-24,72.0,56.1,46.0,56.2,47.3,40.3,80,73,55,30.06,29.93,19,1,19,0.00
2013-9-25,72.9,55.7,46.0,57.0,47.1,40.3,80,74,55,29.99,29.92,43,1,43,0.00
2013-9-26,78.4,57.5,45.0,59.1,47.5,39.2,80,70,44,30.08,29.97,44,1,44,0.00
2013-9-27,81.1,60.7,46.2,60.0,50.0,40.5,80,69,46,30.15,30.03,37,1,37,0.00
2013-9-28,80.8,64.9,52.2,62.4,54.6,45.9,80,70,51,30.05,29.82,35,2,35,0.16
2013-9-29,74.3,57.0,47.1,54.1,46.7,40.9,80,70,42,30.04,29.92,45,0,45,0.00
2013-9-30,73.2,56.1,41.7,52.4,45.1,36.3,81,68,47,29.99,29.82,37,1,37,0.02
2013-10-1,80.8,66.0,49.8,64.5,56.4,43.2,79,72,54,29.93,29.80,32,2,32,0.00
2013-10-2,82.2,61.4,47.8,56.0,47.9,41.9,80,64,36,30.10,29.93,45,2,45,0.00
2013-10-3,74.3,64.6,55.0,65.5,57.6,47.2,79,78,73,29.98,29.80,26,0,26,0.16
2013-10-4,66.0,63.4,60.8,58.8,56.8,54.1,80,79,78,29.98,29.85,18,1,18,0.17
2013-10-5,72.5,65.1,61.7,65.6,58.6,55.5,80,80,78,29.93,29.70,24,0,24,0.73
2013-10-6,63.3,53.1,46.0,56.7,44.3,39.7,80,73,57,29.74,29.64,10,1,24,0.08
2013-10-7,67.8,52.1,45.1,51.0,43.6,39.2,80,73,53,30.07,29.69,6,1,6,0.00
2013-10-8,78.3,56.4,39.9,55.0,45.0,34.6,81,68,41,30.16,30.05,42,1,42,0.00
2013-10-9,74.8,57.1,45.0,54.0,45.6,39.2,80,67,39,30.22,30.11,17,1,17,0.00
2013-10-10,75.4,56.1,43.0,57.2,46.1,37.2,80,70,48,30.16,30.02,7,0,7,0.00
2013-10-11,74.7,59.9,48.7,59.4,50.0,42.5,80,71,53,30.05,29.92,12,1,12,0.00
2013-10-12,67.3,59.2,46.8,58.9,51.0,39.9,78,74,58,30.14,29.90,102,1,102,0.23
2013-10-13,66.7,48.2,38.8,46.4,38.8,33.4,81,71,46,30.39,30.14,13,0,13,0.00
2013-10-14,64.8,46.8,34.3,49.1,38.5,29.0,81,73,55,30.41,30.13,13,1,13,0.00
2013-10-15,60.6,53.1,45.0,54.0,46.6,38.9,80,79,77,30.13,29.72,8,1,8,0.12
2013-10-16,54.1,49.1,45.0,47.6,43.1,39.4,80,80,78,29.91,29.77,11,1,11,0.04
2013-10-17,49.3,45.6,39.0,42.8,39.9,33.7,81,80,79,29.90,29.80,3,0,3,0.16
2013-10-18,48.4,42.0,35.8,41.4,36.1,30.8,82,79,76,29.93,29.80,8,0,8,0.00
2013-10-19,52.3,43.3,37.0,39.2,35.4,31.7,82,74,56,29.90,29.71,10,1,10,0.00
2013-10-20,52.0,43.6,33.6,43.5,36.9,28.3,81,77,65,29.85,29.71,8,0,8,0.37
2013-10-21,47.5,40.7,31.6,41.6,32.0,23.3,80,71,61,29.93,29.74,10,1,10,0.00
2013-10-22,46.2,35.4,28.2,32.9,27.1,21.9,80,72,59,29.97,29.87,7,0,7,0.00
2013-10-23,42.6,35.6,27.7,31.2,26.7,22.6,81,71,53,30.00,29.91,6,1,6,0.00
2013-10-24,44.2,36.5,30.2,30.4,26.8,24.2,78,68,57,30.26,29.98,6,1,6,0.00
2013-10-25,54.0,39.1,25.7,33.1,26.1,20.1,80,61,42,30.37,29.93,24,3,24,0.00
2013-10-26,53.2,45.8,38.1,37.1,30.3,26.3,66,55,44,30.05,29.78,17,3,17,0.00
2013-10-27,56.5,40.5,28.0,33.9,28.2,22.5,80,63,40,30.05,29.87,16,2,16,0.00
2013-10-28,45.0,40.2,33.1,36.3,31.6,26.4,79,71,65,30.39,30.03,13,0,13,0.00
2013-10-29,59.5,43.5,35.4,45.4,35.8,27.6,80,75,59,30.37,30.12,8,0,8,0.00
2013-10-30,57.9,49.9,42.4,51.1,43.8,36.7,80,79,78,30.12,29.72,11,0,11,0.00
2013-10-31,60.8,55.8,43.5,54.7,49.6,37.8,80,80,79,29.72,29.21,0,0,0,0.00
2013-11-1,45.9,43.3,40.8,39.7,37.5,35.4,81,80,79,29.71,29.31,3,0,3,0.00
2013-11-2,45.5,39.9,35.8,39.4,34.5,30.8,82,81,77,30.12,29.71,6,0,6,0.00
2013-11-3,55.8,41.5,29.1,40.8,33.6,24.3,83,74,50,30.27,30.12,15,2,15,0.00
2013-11-4,56.5,49.0,43.2,43.3,39.3,35.8,78,70,57,30.23,30.03,20,5,20,0.00
2013-11-5,55.2,50.9,47.1,47.2,44.3,41.3,80,78,73,30.23,29.88,14,3,19,0.00
2013-11-6,55.0,44.1,30.0,49.0,38.3,24.6,81,80,76,30.14,29.72,21,3,21,0.00
2013-11-7,45.0,34.3,26.4,34.5,27.8,21.3,82,77,63,30.20,30.08,9,1,9,0.00
2013-11-8,46.2,37.3,25.2,34.1,29.1,20.4,82,73,61,30.29,29.83,12,2,12,0.00
2013-11-9,55.2,47.3,40.5,40.6,35.6,26.8,74,64,55,30.04,29.75,20,5,20,0.00
2013-11-10,53.4,42.7,35.6,32.9,29.4,25.5,69,60,43,30.29,30.04,11,3,11,0.00
2013-11-11,43.7,34.0,20.8,33.0,26.1,15.0,81,73,63,30.52,30.03,11,2,11,0.00
2013-11-12,37.9,24.8,18.3,21.8,15.8,12.0,81,69,48,30.69,30.51,9,2,9,0.00
2013-11-13,43.7,30.0,17.8,20.8,16.3,11.1,76,58,36,30.55,30.08,23,5,23,0.00
2013-11-14,46.8,38.7,31.6,29.5,24.5,18.2,66,57,49,30.08,29.87,24,4,24,0.00
2013-11-15,57.6,43.4,36.7,36.1,30.1,25.8,76,60,44,29.94,29.85,12,2,12,0.00
2013-11-16,58.3,48.4,34.0,51.8,42.3,27.6,81,79,75,29.90,29.50,21,5,21,0.00
2013-11-17,64.8,52.2,39.4,56.6,45.8,32.8,81,79,74,29.65,29.03,22,4,22,0.00
2013-11-18,39.6,34.3,26.6,33.1,25.9,19.8,78,72,60,30.24,29.65,18,4,18,0.00
2013-11-19,45.1,30.7,20.1,29.7,23.0,15.2,82,74,53,30.36,30.23,7,1,7,0.00
2013-11-20,43.9,36.6,30.4,31.6,28.4,25.3,81,73,53,30.26,30.09,19,4,19,0.00
2013-11-21,45.5,41.0,36.7,39.4,35.3,31.4,81,80,78,30.21,30.09,5,0,5,0.00
2013-11-22,41.2,32.9,24.4,34.4,25.8,17.0,82,75,60,30.44,30.20,11,2,11,0.00
2013-11-23,24.4,19.5,12.0,17.0,9.1,2.9,73,64,54,30.70,30.39,13,4,13,0.00
2013-11-24,28.8,17.8,7.5,9.1,5.7,1.0,76,60,42,30.68,30.28,18,3,18,0.00
2013-11-25,29.3,25.8,20.5,23.4,17.9,7.7,81,72,54,30.29,30.03,20,5,20,0.00
2013-11-26,31.3,25.7,12.7,25.1,17.6,3.6,80,71,59,30.18,30.00,11,3,11,0.00
2013-11-27,32.4,18.5,8.2,17.3,8.8,1.6,77,66,52,30.24,30.12,9,2,9,0.00
2013-11-28,34.9,23.0,12.0,20.1,13.2,5.5,75,66,53,30.50,30.16,10,1,10,0.00
2013-11-29,35.8,22.0,7.0,21.2,13.8,1.5,81,71,53,30.62,30.35,7,1,7,0.00
2013-11-30,48.9,34.4,26.1,33.5,25.0,19.9,78,69,55,30.35,29.98,17,2,17,0.00
2013-12-1,46.0,32.7,26.1,31.1,24.3,18.6,81,72,54,30.12,29.97,5,0,5,0.00
2013-12-2,41.9,31.3,19.9,32.6,24.7,14.7,82,76,65,29.97,29.75,10,1,10,0.00
2013-12-3,39.7,37.0,33.1,34.7,32.0,27.9,82,82,81,29.76,29.67,8,1,8,0.00
2013-12-4,50.4,42.3,36.7,45.0,37.2,30.9,83,82,78,29.74,29.45,22,2,22,0.00
2013-12-5,36.3,24.7,16.5,30.7,16.4,8.4,81,71,61,30.24,29.60,14,4,14,0.00
2013-12-6,21.7,13.3,8.4,10.3,5.3,0.7,75,70,59,30.54,30.22,14,2,14,0.00
2013-12-7,22.8,9.4,2.3,8.6,0.8,-4.2,76,68,52,30.67,30.53,9,1,9,0.00
2013-12-8,23.5,11.2,5.4,18.9,4.1,-0.7,82,73,67,30.60,29.92,7,0,7,0.00
2013-12-9,23.5,13.0,-3.8,19.1,5.7,-11.2,83,72,57,30.18,29.89,17,2,17,0.00
2013-12-10,22.1,8.0,-6.7,11.7,-0.0,-13.7,79,70,56,30.26,29.94,17,3,17,0.00
2013-12-11,15.8,8.1,-7.8,8.8,-0.6,-16.2,79,67,52,30.54,30.24,10,2,10,0.00
2013-12-12,20.1,8.0,-6.0,8.7,-0.5,-13.1,74,68,58,30.52,30.17,14,3,14,0.00
2013-12-13,29.5,21.4,11.7,21.4,14.9,5.2,81,76,68,30.20,30.12,9,1,9,0.00
2013-12-14,29.8,27.0,24.6,24.1,21.7,18.9,82,80,78,30.14,29.96,12,3,12,0.00
2013-12-15,19.8,11.5,4.8,9.0,1.9,-5.2,76,65,53,30.13,29.92,12,3,12,0.00
2013-12-16,18.3,8.7,-3.3,8.8,0.6,-11.0,79,69,55,30.17,30.00,9,1,9,0.00
2013-12-17,38.3,24.9,14.0,26.6,17.4,8.7,82,73,61,30.05,29.87,11,2,11,0.00
2013-12-18,34.7,24.5,8.8,24.3,14.5,1.9,77,66,46,30.12,29.77,20,4,20,0.00
2013-12-19,33.6,29.5,21.4,27.5,23.4,15.5,82,78,72,29.95,29.78,11,1,11,0.00
2013-12-20,31.8,28.4,24.6,27.0,23.6,19.9,83,82,82,29.86,29.76,8,1,8,0.00
2013-12-21,31.6,27.9,24.1,27.1,23.4,19.7,83,83,82,29.87,29.64,10,0,10,0.00
2013-12-22,31.6,26.2,20.3,25.6,21.3,15.6,83,81,77,30.10,29.64,7,0,7,0.00
2013-12-23,20.3,10.3,-1.1,15.7,5.2,-6.6,83,79,75,30.41,30.09,3,0,3,0.00
2013-12-24,18.5,5.1,-5.6,8.6,-1.1,-10.8,79,75,64,30.52,30.32,0,0,0,0.00
2013-12-25,22.8,19.9,11.1,18.1,15.0,5.8,82,81,79,30.31,30.05,12,2,12,0.00
2013-12-26,26.2,20.5,10.0,20.2,15.3,5.0,82,80,76,30.25,30.06,8,1,8,0.00
2013-12-27,37.6,27.7,13.6,29.7,21.7,9.1,83,78,70,30.26,30.00,18,2,18,0.00
2013-12-28,46.4,36.9,25.0,34.3,28.9,19.6,82,73,60,30.05,29.73,17,4,17,0.00
2013-12-29,38.1,22.0,0.1,29.4,14.9,-7.1,81,74,68,30.22,29.72,11,4,11,0.00
2013-12-30,7.7,-0.1,-9.6,-3.5,-8.5,-16.2,74,67,57,30.33,30.17,9,0,9,0.00
2013-12-31,7.9,3.5,-4.2,1.9,-2.7,-10.2,78,75,70,30.35,30.17,7,0,7,0.00
2014-1-1,18.1,10.0,3.6,12.6,3.7,-4.0,79,76,70,30.34,30.24,3,0,3,0.00
2014-1-2,21.4,8.5,-5.3,9.1,1.1,-11.3,78,72,56,30.42,30.21,9,2,9,0.00